Walkden, United Kingdom
Current Conditions -  °F | °C
As of 12:50 PM on Monday 22 Dec 2014 (Local Time) from EGCC Reporting Station
Scattered Clouds Scattered Clouds  
Wind Chill: 13°   Ceiling: Unl
Heat Index: 13°   Visibility: 6mi
Dew Point: 10°   Wind: 24mph
Humidity: 82%   Direction: 240°WSW
Pressure: 29.83"   Gusts: NA
Location:  53.52°N, 2.4°W
Report Text: EGCC 221250Z 24021KT 9999 SCT018 13/10 Q1010 NOSIG
Loading
Personal Weather Stations






























Interactive Weather Map New forecast layout! Learn more

10-Day Weather Forecast

Advertisements
Track Severe Weather on mobile